createdAt,value
2023-01-28T00:02:09.924Z,0.29
2023-01-28T00:04:40.257Z,0.57
2023-01-28T00:07:08.938Z,-0.20
2023-01-28T00:09:37.071Z,-0.17
2023-01-28T00:12:06.146Z,-0.54
2023-01-28T00:14:34.453Z,-0.66
2023-01-28T00:17:03.034Z,-0.61
2023-01-28T00:19:31.175Z,-0.39
2023-01-28T00:22:01.054Z,-0.04
2023-01-28T00:24:29.263Z,-0.10
2023-01-28T00:26:57.824Z,-0.32
2023-01-28T00:29:26.167Z,-0.10
2023-01-28T00:31:54.837Z,-0.54
2023-01-28T00:34:23.408Z,-0.68
2023-01-28T00:36:57.938Z,-0.95
2023-01-28T00:39:28.562Z,-0.23
2023-01-28T00:41:57.284Z,-0.62
2023-01-28T00:44:25.729Z,-0.43
2023-01-28T00:46:54.296Z,-0.32
2023-01-28T00:49:22.608Z,-0.35
2023-01-28T00:51:51.178Z,-1.11
2023-01-28T00:54:19.425Z,-1.09
2023-01-28T00:56:49.381Z,-1.10
2023-01-28T00:59:17.612Z,-0.42
2023-01-28T01:01:46.265Z,-0.02
2023-01-28T01:04:27.087Z,0.21
2023-01-28T01:06:55.612Z,-0.10
2023-01-28T01:09:23.914Z,0.08
2023-01-28T01:11:53.828Z,0.71
2023-01-28T01:14:22.257Z,0.47
2023-01-28T01:16:50.951Z,0.42
2023-01-28T01:19:19.200Z,0.46
2023-01-28T01:21:50.968Z,0.32
2023-01-28T01:24:19.356Z,0.40
2023-01-28T01:26:48.085Z,0.52
2023-01-28T01:29:17.818Z,0.60
2023-01-28T01:31:46.504Z,0.61
2023-01-28T01:34:14.802Z,0.22
2023-01-28T01:36:44.241Z,0.68
2023-01-28T01:39:13.910Z,1.04
2023-01-28T01:41:43.036Z,0.85
2023-01-28T01:44:44.872Z,1.28
2023-01-28T01:47:15.424Z,1.02
2023-01-28T01:49:43.726Z,0.83
2023-01-28T01:52:14.643Z,1.38
2023-01-28T01:54:44.613Z,1.27
2023-01-28T01:57:16.425Z,1.38
2023-01-28T01:59:45.765Z,1.09
2023-01-28T02:02:15.912Z,1.26
2023-01-28T02:04:46.148Z,1.34
2023-01-28T02:07:16.881Z,1.23
2023-01-28T02:09:45.256Z,0.94
2023-01-28T02:12:16.123Z,1.42
2023-01-28T02:14:47.102Z,0.99
2023-01-28T02:17:17.522Z,1.28
2023-01-28T02:19:50.061Z,1.30
2023-01-28T02:22:31.582Z,1.54
2023-01-28T02:25:18.228Z,1.66
2023-01-28T02:28:03.093Z,1.62
2023-01-28T02:30:36.986Z,1.59
2023-01-28T02:33:08.093Z,1.49
2023-01-28T02:35:39.286Z,1.67
2023-01-28T02:38:11.304Z,1.71
2023-01-28T02:41:02.232Z,1.74
2023-01-28T02:43:34.193Z,1.79
2023-01-28T02:46:27.402Z,1.72
2023-01-28T02:48:56.366Z,1.33
2023-01-28T02:51:34.807Z,1.68
2023-01-28T02:54:12.061Z,1.60
2023-01-28T02:56:47.013Z,1.66
2023-01-28T02:59:34.407Z,1.78
2023-01-28T03:02:09.349Z,1.84
2023-01-28T03:04:42.861Z,1.82
2023-01-28T03:07:12.380Z,1.56
2023-01-28T03:09:41.328Z,1.83
2023-01-28T03:12:29.621Z,1.87
2023-01-28T03:15:19.251Z,1.97
2023-01-28T03:18:06.722Z,1.94
2023-01-28T03:20:58.275Z,2.05
2023-01-28T03:23:49.569Z,2.09
2023-01-28T03:26:37.639Z,1.69
2023-01-28T03:29:25.455Z,1.75
2023-01-28T03:32:13.820Z,1.72
2023-01-28T03:34:59.741Z,1.45
2023-01-28T03:37:30.127Z,1.44
2023-01-28T03:39:58.814Z,1.39
2023-01-28T03:42:27.456Z,1.32
2023-01-28T03:44:56.512Z,1.30
2023-01-28T03:47:28.202Z,1.74
2023-01-28T03:49:57.719Z,1.63
2023-01-28T03:52:27.751Z,1.70
2023-01-28T03:54:56.055Z,1.27
2023-01-28T03:57:26.834Z,1.66
2023-01-28T03:59:55.398Z,1.28
2023-01-28T04:02:25.388Z,1.28
2023-01-28T04:04:55.081Z,1.26
2023-01-28T04:07:23.631Z,0.92
2023-01-28T04:09:51.837Z,0.97
2023-01-28T04:12:20.392Z,1.03
2023-01-28T04:14:48.608Z,1.15
2023-01-28T04:17:17.260Z,1.26
2023-01-28T04:19:45.571Z,1.22
2023-01-28T04:22:15.436Z,1.52
2023-01-28T04:24:43.583Z,1.37
2023-01-28T04:27:12.113Z,1.39
2023-01-28T04:29:40.358Z,1.44
2023-01-28T04:32:11.541Z,1.49
2023-01-28T04:34:40.052Z,1.52
2023-01-28T04:37:08.625Z,1.37
2023-01-28T04:39:38.180Z,1.67
2023-01-28T04:42:06.899Z,1.33
2023-01-28T04:44:35.149Z,1.36
2023-01-28T04:47:03.821Z,1.26
2023-01-28T04:49:32.880Z,1.16
2023-01-28T04:52:01.494Z,1.12
2023-01-28T04:54:29.855Z,1.02
2023-01-28T04:56:59.796Z,1.38
2023-01-28T04:59:28.206Z,1.14
2023-01-28T05:01:56.896Z,1.09
2023-01-28T05:04:25.287Z,0.85
2023-01-28T05:06:53.828Z,0.98
2023-01-28T05:09:22.341Z,1.18
2023-01-28T05:11:50.919Z,1.13
2023-01-28T05:14:20.531Z,1.46
2023-01-28T05:16:49.404Z,1.24
2023-01-28T05:19:17.687Z,1.07
2023-01-28T05:21:46.214Z,1.13
2023-01-28T05:24:14.500Z,1.04
2023-01-28T05:26:43.477Z,1.14
2023-01-28T05:29:11.782Z,1.20
2023-01-28T05:31:41.904Z,1.58
2023-01-28T05:34:10.281Z,1.34
2023-01-28T05:36:38.833Z,1.47
2023-01-28T05:39:07.800Z,1.49
2023-01-28T05:41:36.241Z,1.46
2023-01-28T05:44:04.782Z,1.54
2023-01-28T05:46:33.625Z,1.51
2023-01-28T05:49:03.246Z,1.66
2023-01-28T05:51:31.894Z,1.35
2023-01-28T05:54:00.111Z,1.15
2023-01-28T05:56:28.608Z,1.15
2023-01-28T05:58:56.835Z,1.24
2023-01-28T06:01:25.326Z,0.96
2023-01-28T06:03:53.731Z,1.15
2023-01-28T06:06:23.799Z,1.37
2023-01-28T06:08:52.090Z,1.02
2023-01-28T06:11:20.841Z,1.14
2023-01-28T06:13:49.228Z,1.22
2023-01-28T06:16:17.901Z,1.27
2023-01-28T06:18:46.166Z,1.15
2023-01-28T06:21:14.630Z,1.17
2023-01-28T06:23:44.166Z,1.32
2023-01-28T06:26:12.796Z,1.05
2023-01-28T06:28:41.088Z,0.94
2023-01-28T06:31:09.635Z,1.04
2023-01-28T06:33:37.844Z,1.09
2023-01-28T06:36:07.882Z,1.05
2023-01-28T06:38:36.362Z,0.77
2023-01-28T06:41:06.514Z,1.27
2023-01-28T06:43:34.866Z,0.99
2023-01-28T06:46:03.431Z,1.10
2023-01-28T06:48:32.309Z,0.99
2023-01-28T06:51:00.817Z,0.79
2023-01-28T06:53:29.370Z,0.82
2023-01-28T06:55:57.934Z,0.63
2023-01-28T06:58:27.704Z,0.98
2023-01-28T07:00:56.268Z,0.41
2023-01-28T07:03:24.681Z,0.29
2023-01-28T07:05:53.391Z,0.52
2023-01-28T07:08:21.600Z,0.71
2023-01-28T07:10:50.438Z,0.66
2023-01-28T07:13:18.655Z,0.56
2023-01-28T07:15:48.990Z,1.11
2023-01-28T07:18:17.450Z,0.78
2023-01-28T07:20:45.958Z,0.53
2023-01-28T07:23:14.232Z,0.83
2023-01-28T07:25:42.749Z,1.00
2023-01-28T07:28:11.216Z,1.15
2023-01-28T07:30:39.750Z,1.18
2023-01-28T07:33:09.335Z,1.59
2023-01-28T07:35:37.896Z,1.37
2023-01-28T07:38:06.294Z,1.29
2023-01-28T07:40:34.800Z,1.32
2023-01-28T07:43:03.087Z,1.34
2023-01-28T07:45:32.102Z,1.24
2023-01-28T07:48:01.637Z,1.12
2023-01-28T07:50:34.231Z,1.36
2023-01-28T07:53:04.426Z,1.32
2023-01-28T07:55:35.815Z,1.13
2023-01-28T07:58:06.176Z,1.50
2023-01-28T08:00:36.048Z,1.28
2023-01-28T08:03:06.237Z,1.27
2023-01-28T08:05:41.201Z,1.63
2023-01-28T08:08:09.991Z,1.45
2023-01-28T08:10:38.992Z,1.46
2023-01-28T08:13:08.024Z,1.77
2023-01-28T08:15:36.968Z,1.74
2023-01-28T08:18:06.571Z,2.28
2023-01-28T08:20:36.688Z,2.29
2023-01-28T08:23:08.974Z,2.56
2023-01-28T08:25:37.569Z,2.30
2023-01-28T08:28:06.910Z,2.43
2023-01-28T08:30:35.694Z,2.34
2023-01-28T08:33:03.961Z,2.30
2023-01-28T08:35:33.942Z,2.57
2023-01-28T08:38:04.983Z,2.56
2023-01-28T08:40:33.912Z,2.29
2023-01-28T08:43:02.611Z,2.44
2023-01-28T08:45:32.038Z,2.52
2023-01-28T08:48:01.582Z,2.73
2023-01-28T08:50:32.662Z,2.82
2023-01-28T08:53:04.316Z,2.89
2023-01-28T08:55:32.859Z,2.73
2023-01-28T08:58:03.620Z,3.16
2023-01-28T09:00:32.261Z,2.84
2023-01-28T09:03:00.728Z,2.64
2023-01-28T09:05:30.176Z,2.53
2023-01-28T09:07:58.482Z,2.58
2023-01-28T09:10:28.435Z,3.07
2023-01-28T09:12:56.704Z,2.62
2023-01-28T09:15:25.303Z,2.77
2023-01-28T09:17:58.816Z,3.30
2023-01-28T09:20:27.760Z,2.70
2023-01-28T09:22:56.035Z,2.69
2023-01-28T09:25:24.661Z,2.89
2023-01-28T09:27:54.247Z,3.26
2023-01-28T09:30:23.332Z,3.12
2023-01-28T09:32:52.559Z,3.26
2023-01-28T09:35:21.140Z,3.25
2023-01-28T09:37:49.906Z,3.56
2023-01-28T09:40:20.344Z,3.68
2023-01-28T09:43:01.108Z,3.81
2023-01-28T09:45:35.209Z,3.80
2023-01-28T09:48:05.269Z,3.59
2023-01-28T09:50:35.915Z,3.62
2023-01-28T09:53:07.423Z,3.65
2023-01-28T09:55:38.105Z,3.58
2023-01-28T09:58:12.210Z,3.74
2023-01-28T10:00:46.715Z,3.60
2023-01-28T10:03:39.638Z,3.77
2023-01-28T10:06:16.251Z,3.85
2023-01-28T10:09:02.237Z,4.04
2023-01-28T10:11:44.200Z,3.87
2023-01-28T10:14:20.407Z,3.89
2023-01-28T10:16:52.349Z,3.85
2023-01-28T10:19:23.417Z,3.76
2023-01-28T10:21:52.263Z,4.05
2023-01-28T10:24:28.054Z,3.54
2023-01-28T10:27:01.874Z,3.34
2023-01-28T10:29:35.141Z,3.17
2023-01-28T10:32:07.445Z,3.13
2023-01-28T10:34:35.876Z,2.87
2023-01-28T10:37:05.426Z,2.83
2023-01-28T10:39:33.607Z,2.93
2023-01-28T10:42:02.103Z,3.08
2023-01-28T10:44:38.401Z,3.60
2023-01-28T10:47:12.639Z,3.38
2023-01-28T10:49:43.524Z,3.36
2023-01-28T10:52:13.405Z,3.33
2023-01-28T10:54:41.746Z,3.49
2023-01-28T10:57:13.630Z,4.10
2023-01-28T10:59:44.255Z,4.41
2023-01-28T11:02:26.365Z,4.99
2023-01-28T11:05:03.275Z,5.06
2023-01-28T11:07:32.059Z,4.49
2023-01-28T11:10:00.340Z,4.13
2023-01-28T11:12:30.335Z,4.28
2023-01-28T11:15:01.390Z,4.33
2023-01-28T11:17:33.196Z,4.29
2023-01-28T11:20:03.561Z,4.13
2023-01-28T11:22:35.303Z,4.29
2023-01-28T11:25:03.921Z,4.66
2023-01-28T11:27:33.306Z,3.80
2023-01-28T11:30:04.902Z,3.51
2023-01-28T11:32:34.024Z,3.30
2023-01-28T11:35:02.287Z,3.22
2023-01-28T11:37:31.656Z,3.41
2023-01-28T11:40:21.203Z,4.09
2023-01-28T11:42:52.028Z,4.02
2023-01-28T11:45:25.936Z,4.15
2023-01-28T11:48:10.182Z,4.07
2023-01-28T11:50:46.359Z,4.07
2023-01-28T11:53:25.760Z,3.88
2023-01-28T11:56:07.205Z,3.58
2023-01-28T11:58:43.348Z,3.44
2023-01-28T12:01:16.112Z,3.48
2023-01-28T12:04:24.841Z,3.78
2023-01-28T12:07:03.261Z,3.64
2023-01-28T12:09:37.287Z,3.67
2023-01-28T12:12:16.810Z,3.73
2023-01-28T12:15:03.317Z,3.49
2023-01-28T12:17:43.516Z,3.56
2023-01-28T12:20:17.862Z,3.47
2023-01-28T12:23:16.340Z,3.32
2023-01-28T12:25:58.379Z,3.53
2023-01-28T12:28:35.620Z,3.53
2023-01-28T12:31:27.880Z,3.60
2023-01-28T12:34:09.092Z,3.78
2023-01-28T12:36:43.930Z,4.24
2023-01-28T12:39:23.333Z,3.76
2023-01-28T12:41:54.949Z,3.55
2023-01-28T12:44:27.162Z,3.71
2023-01-28T12:46:57.900Z,3.82
2023-01-28T12:49:31.128Z,3.92
2023-01-28T12:52:04.387Z,4.01
2023-01-28T12:54:36.818Z,3.89
2023-01-28T12:57:06.067Z,3.67
2023-01-28T12:59:38.748Z,4.09
2023-01-28T13:02:19.576Z,4.39
2023-01-28T13:04:52.908Z,4.40
2023-01-28T13:07:26.121Z,4.20
2023-01-28T13:10:00.241Z,4.10
2023-01-28T13:12:29.014Z,3.77
2023-01-28T13:15:01.645Z,4.03
2023-01-28T13:17:31.953Z,3.85
2023-01-28T13:20:01.672Z,3.82
2023-01-28T13:22:32.793Z,3.63
2023-01-28T13:25:20.041Z,3.84
2023-01-28T13:27:57.099Z,3.63
2023-01-28T13:30:28.886Z,3.45
2023-01-28T13:32:59.858Z,3.25
2023-01-28T13:35:37.731Z,3.25
2023-01-28T13:38:10.878Z,3.19
2023-01-28T13:40:40.226Z,3.04
2023-01-28T13:43:30.256Z,3.35
2023-01-28T13:45:59.928Z,3.09
2023-01-28T13:48:33.411Z,3.23
2023-01-28T13:51:03.867Z,3.07
2023-01-28T13:53:40.858Z,3.21
2023-01-28T13:56:19.913Z,3.27
2023-01-28T13:59:23.601Z,3.27
2023-01-28T14:02:24.213Z,3.26
2023-01-28T14:05:20.957Z,3.38
2023-01-28T14:08:30.128Z,3.64
2023-01-28T14:11:06.313Z,3.46
2023-01-28T14:13:53.157Z,3.50
2023-01-28T14:16:42.951Z,3.01
2023-01-28T14:19:13.648Z,2.82
2023-01-28T14:21:42.356Z,2.52
2023-01-28T14:24:18.220Z,3.06
2023-01-28T14:26:56.638Z,3.21
2023-01-28T14:29:34.731Z,3.24
2023-01-28T14:32:07.061Z,3.32
2023-01-28T14:34:37.053Z,3.38
2023-01-28T14:37:07.955Z,3.41
2023-01-28T14:39:43.070Z,3.57
2023-01-28T14:42:16.201Z,3.50
2023-01-28T14:44:45.852Z,3.45
2023-01-28T14:47:38.269Z,3.66
2023-01-28T14:50:21.724Z,3.57
2023-01-28T14:53:17.580Z,3.83
2023-01-28T14:55:53.551Z,3.61
2023-01-28T14:58:25.622Z,3.51
2023-01-28T15:00:56.210Z,3.48
2023-01-28T15:03:25.883Z,3.07
2023-01-28T15:06:08.026Z,3.52
2023-01-28T15:08:36.515Z,3.05
2023-01-28T15:11:08.126Z,3.39
2023-01-28T15:13:39.247Z,3.38
2023-01-28T15:16:08.462Z,3.26
2023-01-28T15:18:38.579Z,3.23
2023-01-28T15:21:06.941Z,3.03
2023-01-28T15:23:37.280Z,3.20
2023-01-28T15:26:14.991Z,3.39
2023-01-28T15:28:45.166Z,3.09
2023-01-28T15:31:21.065Z,3.23
2023-01-28T15:33:58.157Z,3.27
2023-01-28T15:36:27.126Z,2.85
2023-01-28T15:38:55.960Z,2.85
2023-01-28T15:41:28.658Z,3.12
2023-01-28T15:43:57.318Z,2.73
2023-01-28T15:46:25.812Z,2.79
2023-01-28T15:48:59.309Z,3.08
2023-01-28T15:51:31.060Z,2.95
2023-01-28T15:54:04.462Z,3.07
2023-01-28T15:56:34.397Z,3.07
2023-01-28T15:59:11.407Z,3.33
2023-01-28T16:01:39.788Z,2.86
2023-01-28T16:04:21.050Z,2.96
2023-01-28T16:06:49.495Z,2.73
2023-01-28T16:09:24.652Z,3.15
2023-01-28T16:11:54.796Z,3.05
2023-01-28T16:14:26.009Z,2.98
2023-01-28T16:16:55.791Z,2.87
2023-01-28T16:19:33.235Z,3.21
2023-01-28T16:22:02.129Z,2.90
2023-01-28T16:24:32.385Z,2.97
2023-01-28T16:27:03.937Z,3.17
2023-01-28T16:29:33.097Z,2.99
2023-01-28T16:32:03.297Z,2.94
2023-01-28T16:34:31.890Z,2.68
2023-01-28T16:37:01.798Z,2.91
2023-01-28T16:39:31.236Z,2.60
2023-01-28T16:42:01.134Z,2.73
2023-01-28T16:44:29.657Z,2.58
2023-01-28T16:46:57.925Z,2.64
2023-01-28T16:49:26.634Z,2.52
2023-01-28T16:51:54.965Z,2.61
2023-01-28T16:54:23.699Z,2.65
2023-01-28T16:56:52.122Z,2.69
2023-01-28T16:59:22.030Z,2.82
2023-01-28T17:01:51.178Z,2.72
2023-01-28T17:04:20.119Z,2.62
2023-01-28T17:06:48.392Z,2.61
2023-01-28T17:09:17.059Z,2.70
2023-01-28T17:11:45.295Z,1.78
2023-01-28T17:14:14.044Z,2.20
2023-01-28T17:16:43.749Z,2.75
2023-01-28T17:19:12.282Z,2.56
2023-01-28T17:21:40.565Z,2.65
2023-01-28T17:24:09.466Z,2.73
2023-01-28T17:26:38.346Z,2.72
2023-01-28T17:29:07.954Z,2.88
2023-01-28T17:31:36.919Z,2.82
2023-01-28T17:34:08.285Z,3.05
2023-01-28T17:36:36.589Z,2.70
2023-01-28T17:39:06.307Z,2.65
2023-01-28T17:41:34.630Z,2.64
2023-01-28T17:44:04.651Z,2.68
2023-01-28T17:46:33.041Z,2.76
2023-01-28T17:49:02.956Z,3.02
2023-01-28T17:51:32.587Z,3.02
2023-01-28T17:54:01.211Z,2.73
2023-01-28T17:56:31.236Z,3.04
2023-01-28T17:59:02.404Z,3.11
2023-01-28T18:01:31.234Z,2.92
2023-01-28T18:04:00.304Z,2.91
2023-01-28T18:06:32.833Z,3.24
2023-01-28T18:09:01.771Z,2.85
2023-01-28T18:11:30.462Z,2.81
2023-01-28T18:13:59.144Z,2.77
2023-01-28T18:16:27.334Z,2.76
2023-01-28T18:18:55.906Z,2.83
2023-01-28T18:21:46.504Z,3.36
2023-01-28T18:24:19.761Z,2.95
2023-01-28T18:26:48.026Z,2.77
2023-01-28T18:29:30.605Z,3.31
2023-01-28T18:32:00.303Z,3.07
2023-01-28T18:34:31.793Z,3.10
2023-01-28T18:37:03.582Z,3.16
2023-01-28T18:39:32.100Z,2.86
2023-01-28T18:42:00.613Z,2.97
2023-01-28T18:44:31.213Z,3.00
2023-01-28T18:46:59.488Z,2.74
2023-01-28T18:49:27.967Z,2.68
2023-01-28T18:51:56.191Z,2.65
2023-01-28T18:54:26.216Z,3.02
2023-01-28T18:56:54.438Z,2.64
2023-01-28T18:59:23.132Z,2.63
2023-01-28T19:01:51.653Z,2.66
2023-01-28T19:04:20.646Z,2.73
2023-01-28T19:06:49.108Z,2.70
2023-01-28T19:09:18.445Z,2.83
2023-01-28T19:11:48.504Z,2.97
2023-01-28T19:14:17.498Z,2.74
2023-01-28T19:16:46.058Z,2.63
2023-01-28T19:19:14.914Z,2.68
2023-01-28T19:21:43.183Z,2.71
2023-01-28T19:24:14.158Z,2.99
2023-01-28T19:26:43.965Z,2.83
2023-01-28T19:29:15.894Z,2.87
2023-01-28T19:31:48.993Z,2.58
2023-01-28T19:34:17.852Z,2.57
2023-01-28T19:36:46.910Z,2.54
2023-01-28T19:39:16.312Z,2.75
2023-01-28T19:41:45.773Z,2.64
2023-01-28T19:44:15.941Z,2.85
2023-01-28T19:46:44.260Z,2.50
2023-01-28T19:49:13.188Z,2.47
2023-01-28T19:51:41.803Z,2.44
2023-01-28T19:54:10.378Z,2.49
2023-01-28T19:56:38.777Z,2.50
2023-01-28T19:59:07.577Z,2.50
2023-01-28T20:01:37.316Z,2.80
2023-01-28T20:04:06.081Z,2.58
2023-01-28T20:06:35.293Z,2.69
2023-01-28T20:09:06.858Z,2.74
2023-01-28T20:11:35.308Z,2.57
2023-01-28T20:14:03.832Z,2.52
2023-01-28T20:16:33.726Z,2.75
2023-01-28T20:19:05.778Z,3.00
2023-01-28T20:21:35.010Z,2.70
2023-01-28T20:24:05.067Z,2.86
2023-01-28T20:26:35.802Z,2.78
2023-01-28T20:29:06.007Z,2.70
2023-01-28T20:31:34.601Z,2.50
2023-01-28T20:34:04.833Z,2.79
2023-01-28T20:36:33.291Z,2.55
2023-01-28T20:39:01.921Z,2.44
2023-01-28T20:41:30.211Z,2.44
2023-01-28T20:43:58.907Z,2.43
2023-01-28T20:46:28.758Z,2.54
2023-01-28T20:48:58.533Z,2.56
2023-01-28T20:51:29.369Z,2.70
2023-01-28T20:54:00.536Z,2.66
2023-01-28T20:56:31.071Z,2.51
2023-01-28T20:59:01.142Z,2.55
2023-01-28T21:01:31.449Z,2.59
2023-01-28T21:04:00.318Z,2.25
2023-01-28T21:06:29.973Z,2.60
2023-01-28T21:08:58.977Z,2.40
2023-01-28T21:11:27.967Z,2.46
2023-01-28T21:13:57.065Z,2.45
2023-01-28T21:16:26.008Z,2.48
2023-01-28T21:18:54.683Z,2.39
2023-01-28T21:21:24.183Z,2.57
2023-01-28T21:23:57.722Z,2.69
2023-01-28T21:26:27.238Z,2.34
2023-01-28T21:28:56.255Z,2.26
2023-01-28T21:31:26.608Z,2.52
2023-01-28T21:33:56.566Z,2.51
2023-01-28T21:36:25.810Z,2.46
2023-01-28T21:38:57.433Z,2.48
2023-01-28T21:41:25.585Z,2.94
2023-01-28T21:43:55.252Z,2.34
2023-01-28T21:46:24.159Z,2.29
2023-01-28T21:48:55.142Z,2.45
2023-01-28T21:51:40.498Z,2.07
2023-01-28T21:54:16.455Z,2.38
2023-01-28T21:56:45.883Z,1.98
2023-01-28T21:59:30.338Z,2.16
2023-01-28T22:01:59.797Z,2.04
2023-01-28T22:04:30.447Z,2.13
2023-01-28T22:06:59.087Z,2.04
2023-01-28T22:09:29.373Z,2.31
2023-01-28T22:11:57.578Z,2.00
2023-01-28T22:14:26.085Z,1.99
2023-01-28T22:16:54.568Z,1.98
2023-01-28T22:19:23.322Z,1.98
2023-01-28T22:21:51.684Z,1.92
2023-01-28T22:24:22.527Z,2.25
2023-01-28T22:26:53.170Z,2.38
2023-01-28T22:29:22.857Z,2.18
2023-01-28T22:31:52.501Z,2.04
2023-01-28T22:34:21.970Z,1.99
2023-01-28T22:36:51.117Z,1.95
2023-01-28T22:39:20.217Z,1.83
2023-01-28T22:41:48.752Z,1.84
2023-01-28T22:44:20.104Z,2.03
2023-01-28T22:46:48.624Z,1.74
2023-01-28T22:49:17.158Z,1.65
2023-01-28T22:51:45.560Z,1.63
2023-01-28T22:54:15.029Z,1.67
2023-01-28T22:56:43.506Z,1.68
2023-01-28T22:59:12.877Z,1.66
2023-01-28T23:01:42.612Z,1.92
2023-01-28T23:04:11.195Z,1.61
2023-01-28T23:06:39.716Z,1.67
2023-01-28T23:09:08.219Z,1.59
2023-01-28T23:11:36.761Z,1.52
2023-01-28T23:14:22.417Z,1.54
2023-01-28T23:17:09.382Z,1.79
2023-01-28T23:19:55.245Z,1.40
2023-01-28T23:22:42.933Z,1.64
2023-01-28T23:25:11.578Z,1.39
2023-01-28T23:27:39.879Z,1.27
2023-01-28T23:30:10.292Z,1.34
2023-01-28T23:32:42.104Z,1.59
2023-01-28T23:35:11.513Z,1.52
2023-01-28T23:37:40.070Z,1.43
2023-01-28T23:40:09.806Z,1.46
2023-01-28T23:42:38.946Z,1.35
2023-01-28T23:45:08.929Z,1.47
2023-01-28T23:47:37.583Z,1.18
2023-01-28T23:50:08.292Z,1.53
2023-01-28T23:52:36.545Z,1.11
2023-01-28T23:55:05.751Z,1.33
2023-01-28T23:57:34.401Z,1.33
